Norman, Nebraska
Current Conditions -  °F | °C
As of 2:53 PM on Tuesday 21 Oct 2014 (Local Time) from KHSI Reporting Station
Clear Clear  
Wind Chill: 76°   Ceiling: Unl
Heat Index: 76°   Visibility: 10mi
Dew Point: 46°   Wind: 12mph
Humidity: 35%   Direction: 170°S
Pressure: 30"   Gusts: 26mph
Location:  40.48°N, 98.79°W
Report Text: KHSI 211953Z AUTO 17010G23KT 10SM CLR 24/08 A3000 RMK AO2 SLP151 T02440078
Loading
Personal Weather Stations






























Interactive Weather Map
Tropical Storm Tracking
New forecast layout! Learn more

10-Day Weather Forecast

Advertisements
Track Severe Weather on mobile